»·PEaware :: N768FS KSMO-KPSP

N768FS :: KSMO-KPSP

FLIGHT INFORMATION

Flight Status: Arrived
Operator: Privately registered:
United States
More flights under this callsign
Pilot: Steve R. (31194)
Aircraft: CIRRUS SR-22 TURBO
(S22T)
More flights by this aircraft type
Origin: KSMO Santa Monica Mun
United States
Destination: KPSP Palm Springs Intl
United States
More flights between these airports :: More routes between these airports
Route: VPLGP ELMOO POM RAVON KBNG GARNE
File this flight plan on PilotEdge
Remarks:
Altitude:
(Current/Filed)
7,500ft
Speed:
(Current/Filed)
175kts
Departed: 10-Jan-21 06:39 PM
Arrived: 10-Jan-21 07:23 PM
Distance/Time
Traveled:
98nm/0:44
Distance/Time
To Go:
Arrived

Flight Plot

Page will automatically refresh every two minutes.

Flight plan parsing failed; only flown route is shown


Map Options




Map Legend


Flown Route
Filed Route
Departure Airport
Arrival Airport
Navaid (VOR, NDB)
Fix

Horizontal Profiles

Position Reports

Time Latitude Longitude Heading Altitude Ground
Speed
10-Jan-21 18:06 34.013755 -118.455324 133 128ft 0kts
10-Jan-21 18:07 34.013755 -118.455324 133 128ft 0kts
10-Jan-21 18:08 34.013755 -118.455324 133 128ft 0kts
10-Jan-21 18:09 34.013755 -118.455324 133 128ft 0kts
10-Jan-21 18:10 34.013755 -118.455324 133 128ft 0kts
10-Jan-21 18:11 34.013755 -118.455324 133 128ft 0kts
10-Jan-21 18:12 34.013755 -118.455324 133 128ft 0kts
10-Jan-21 18:13 34.013755 -118.455324 133 128ft 0kts
10-Jan-21 18:14 34.013755 -118.455324 133 128ft 0kts
10-Jan-21 18:15 34.013755 -118.455324 133 128ft 0kts
10-Jan-21 18:16 34.013755 -118.455324 133 128ft 0kts
10-Jan-21 18:17 34.013755 -118.455324 133 128ft 0kts
10-Jan-21 18:18 34.013755 -118.455324 133 128ft 0kts
10-Jan-21 18:19 34.013755 -118.455324 133 128ft 0kts
10-Jan-21 18:20 34.013755 -118.455324 133 128ft 0kts
10-Jan-21 18:21 34.013755 -118.455324 133 128ft 0kts
10-Jan-21 18:22 34.013755 -118.455324 133 128ft 0kts
10-Jan-21 18:23 34.013755 -118.455324 133 128ft 0kts
10-Jan-21 18:24 34.013755 -118.455324 133 128ft 0kts
10-Jan-21 18:25 34.013755 -118.455324 133 128ft 0kts
10-Jan-21 18:26 34.013755 -118.455324 133 128ft 0kts
10-Jan-21 18:27 34.013755 -118.455324 133 128ft 0kts
10-Jan-21 18:28 34.014342 -118.454224 35 131ft 8kts
10-Jan-21 18:29 34.016280 -118.451880 44 139ft 11kts
10-Jan-21 18:30 34.018721 -118.449011 43 154ft 12kts
10-Jan-21 18:31 34.019348 -118.448067 328 158ft 0kts
10-Jan-21 18:32 34.019348 -118.448067 328 158ft 0kts
10-Jan-21 18:33 34.019348 -118.448067 328 158ft 0kts
10-Jan-21 18:34 34.019348 -118.448067 328 158ft 0kts
10-Jan-21 18:35 34.019348 -118.448067 328 158ft 0kts
10-Jan-21 18:36 34.019534 -118.448079 23 159ft 5kts
10-Jan-21 18:37 34.019536 -118.447705 139 159ft 2kts
10-Jan-21 18:38 34.009459 -118.458502 220 461ft 117kts
10-Jan-21 18:39 33.993664 -118.487956 305 1858ft 133kts
10-Jan-21 18:40 34.023636 -118.506460 32 3344ft 134kts
10-Jan-21 18:41 34.033016 -118.462932 69 4363ft 140kts
10-Jan-21 18:42 34.053528 -118.415047 56 4491ft 177kts
10-Jan-21 18:43 34.064496 -118.394790 55 4483ft 181kts
10-Jan-21 18:44 34.093241 -118.344077 55 4476ft 183kts
10-Jan-21 18:45 34.116520 -118.293837 90 5230ft 133kts
10-Jan-21 18:46 34.113814 -118.253862 88 6402ft 120kts
10-Jan-21 18:47 34.110333 -118.212411 86 7329ft 128kts
10-Jan-21 18:48 34.105974 -118.162616 88 7494ft 167kts
10-Jan-21 18:49 34.100658 -118.104508 89 7484ft 179kts
10-Jan-21 18:50 34.096001 -118.043824 88 7486ft 182kts
10-Jan-21 18:51 34.091848 -117.982684 88 7490ft 183kts
10-Jan-21 18:52 34.087673 -117.921511 88 7495ft 183kts
10-Jan-21 18:53 34.083449 -117.860043 88 7499ft 183kts
10-Jan-21 18:54 34.079216 -117.798907 88 7500ft 183kts
10-Jan-21 18:55 34.079603 -117.738149 81 7498ft 181kts
10-Jan-21 18:56 34.081083 -117.677224 81 7496ft 181kts
10-Jan-21 18:57 34.082527 -117.616560 81 7494ft 181kts
10-Jan-21 18:58 34.083948 -117.555615 81 7493ft 181kts
10-Jan-21 18:59 34.085338 -117.494696 81 7493ft 181kts
10-Jan-21 19:00 34.086696 -117.433851 81 7493ft 181kts
10-Jan-21 19:01 34.088017 -117.373254 81 7493ft 181kts
10-Jan-21 19:03 34.084915 -117.312913 107 7494ft 187kts
10-Jan-21 19:04 34.064454 -117.254825 107 7492ft 188kts
10-Jan-21 19:05 34.044194 -117.196860 107 7492ft 187kts
10-Jan-21 19:06 34.023959 -117.139066 107 7492ft 187kts
10-Jan-21 19:07 34.003745 -117.081414 107 7493ft 186kts
10-Jan-21 19:08 33.983558 -117.023954 107 7495ft 185kts
10-Jan-21 19:09 33.963419 -116.966733 107 7497ft 185kts
10-Jan-21 19:10 33.943161 -116.909311 108 6956ft 181kts
10-Jan-21 19:11 33.924153 -116.855534 108 6190ft 170kts
10-Jan-21 19:12 33.914548 -116.801584 96 5456ft 162kts
10-Jan-21 19:13 33.906024 -116.749051 96 4736ft 156kts
10-Jan-21 19:14 33.897894 -116.699033 97 4050ft 149kts
10-Jan-21 19:14 33.904314 -116.659154 73 3535ft 146kts
10-Jan-21 19:16 33.891761 -116.609253 116 2860ft 145kts
10-Jan-21 19:17 33.875287 -116.567915 128 2249ft 131kts
10-Jan-21 19:17 33.850198 -116.549858 145 1893ft 108kts
10-Jan-21 19:18 33.824033 -116.538648 155 1673ft 101kts
10-Jan-21 19:20 33.796172 -116.521232 92 1007ft 84kts
10-Jan-21 19:20 33.807646 -116.503456 51 708ft 82kts
10-Jan-21 19:21 33.825470 -116.503890 319 412ft 66kts
10-Jan-21 19:23 33.829992 -116.507151 51 424ft 0kts
10-Jan-21 19:23 33.830637 -116.507001 318 425ft 5kts
10-Jan-21 19:24 33.831690 -116.505603 134 424ft 8kts
10-Jan-21 19:25 33.828809 -116.503047 141 415ft 13kts
10-Jan-21 19:26 33.825965 -116.500528 143 405ft 9kts
10-Jan-21 19:27 33.824109 -116.498387 50 398ft 3kts
10-Jan-21 19:28 33.824143 -116.498357 38 398ft 0kts
10-Jan-21 19:29 33.824143 -116.498357 38 398ft 0kts
10-Jan-21 19:30 33.824143 -116.498357 38 398ft 0kts
10-Jan-21 19:31 33.824143 -116.498357 38 398ft 0kts
10-Jan-21 19:32 33.824143 -116.498357 38 398ft 0kts
10-Jan-21 19:33 33.824143 -116.498357 38 398ft 0kts
10-Jan-21 19:34 33.824143 -116.498357 38 398ft 0kts
10-Jan-21 19:35 33.824143 -116.498357 38 398ft 0kts

Navigation Log

Ident Type
Flight plan parsing failed, navigation log unavailable